sensor_id;sensor_type;location;lat;lon;timestamp;P1;durP1;ratioP1;P2;durP2;ratioP2
57441;SDS011;43284;47.042;15.498;2023-08-12T00:02:11;5.63;;;2.97;;
57441;SDS011;43284;47.042;15.498;2023-08-12T00:04:37;5.15;;;3.20;;
57441;SDS011;43284;47.042;15.498;2023-08-12T00:07:02;8.10;;;3.15;;
57441;SDS011;43284;47.042;15.498;2023-08-12T00:09:28;4.97;;;2.97;;
57441;SDS011;43284;47.042;15.498;2023-08-12T00:11:53;7.57;;;2.83;;
57441;SDS011;43284;47.042;15.498;2023-08-12T00:14:19;5.47;;;3.40;;
57441;SDS011;43284;47.042;15.498;2023-08-12T00:16:44;4.65;;;3.20;;
57441;SDS011;43284;47.042;15.498;2023-08-12T00:19:10;4.38;;;3.22;;
57441;SDS011;43284;47.042;15.498;2023-08-12T00:21:35;4.60;;;2.67;;
57441;SDS011;43284;47.042;15.498;2023-08-12T00:24:01;5.95;;;2.40;;
57441;SDS011;43284;47.042;15.498;2023-08-12T00:26:27;3.70;;;2.80;;
57441;SDS011;43284;47.042;15.498;2023-08-12T00:28:52;6.65;;;3.25;;
57441;SDS011;43284;47.042;15.498;2023-08-12T00:31:18;6.07;;;3.47;;
57441;SDS011;43284;47.042;15.498;2023-08-12T00:33:44;5.25;;;3.17;;
57441;SDS011;43284;47.042;15.498;2023-08-12T00:36:09;4.20;;;3.15;;
57441;SDS011;43284;47.042;15.498;2023-08-12T00:38:35;4.78;;;3.53;;
57441;SDS011;43284;47.042;15.498;2023-08-12T00:41:00;4.85;;;3.05;;
57441;SDS011;43284;47.042;15.498;2023-08-12T00:43:26;4.20;;;2.90;;
57441;SDS011;43284;47.042;15.498;2023-08-12T00:45:51;3.72;;;2.75;;
57441;SDS011;43284;47.042;15.498;2023-08-12T00:48:17;3.88;;;2.47;;
57441;SDS011;43284;47.042;15.498;2023-08-12T00:50:43;5.97;;;3.10;;
57441;SDS011;43284;47.042;15.498;2023-08-12T00:53:10;3.35;;;2.42;;
57441;SDS011;43284;47.042;15.498;2023-08-12T00:55:38;3.28;;;2.97;;
57441;SDS011;43284;47.042;15.498;2023-08-12T00:58:03;3.85;;;2.78;;
57441;SDS011;43284;47.042;15.498;2023-08-12T01:00:30;3.47;;;2.78;;
57441;SDS011;43284;47.042;15.498;2023-08-12T01:02:56;3.53;;;2.72;;
57441;SDS011;43284;47.042;15.498;2023-08-12T01:05:23;4.60;;;3.10;;
57441;SDS011;43284;47.042;15.498;2023-08-12T01:07:48;3.53;;;2.63;;
57441;SDS011;43284;47.042;15.498;2023-08-12T01:10:14;7.15;;;2.90;;
57441;SDS011;43284;47.042;15.498;2023-08-12T01:12:47;4.57;;;3.15;;
57441;SDS011;43284;47.042;15.498;2023-08-12T01:15:20;5.95;;;2.70;;
57441;SDS011;43284;47.042;15.498;2023-08-12T01:17:48;5.05;;;3.08;;
57441;SDS011;43284;47.042;15.498;2023-08-12T01:20:17;5.82;;;3.33;;
57441;SDS011;43284;47.042;15.498;2023-08-12T01:22:52;6.38;;;3.25;;
57441;SDS011;43284;47.042;15.498;2023-08-12T01:25:23;5.32;;;3.25;;
57441;SDS011;43284;47.042;15.498;2023-08-12T01:27:49;4.13;;;3.42;;
57441;SDS011;43284;47.042;15.498;2023-08-12T01:30:15;4.32;;;3.13;;
57441;SDS011;43284;47.042;15.498;2023-08-12T01:35:45;3.53;;;2.60;;
57441;SDS011;43284;47.042;15.498;2023-08-12T01:38:14;3.88;;;2.70;;
57441;SDS011;43284;47.042;15.498;2023-08-12T01:40:41;3.80;;;2.50;;
57441;SDS011;43284;47.042;15.498;2023-08-12T01:43:08;3.33;;;2.53;;
57441;SDS011;43284;47.042;15.498;2023-08-12T01:45:34;6.10;;;2.88;;
57441;SDS011;43284;47.042;15.498;2023-08-12T01:48:00;5.07;;;3.05;;
57441;SDS011;43284;47.042;15.498;2023-08-12T01:50:25;5.78;;;3.30;;
57441;SDS011;43284;47.042;15.498;2023-08-12T01:52:51;3.08;;;2.22;;
57441;SDS011;43284;47.042;15.498;2023-08-12T01:55:16;4.72;;;2.50;;
57441;SDS011;43284;47.042;15.498;2023-08-12T01:57:42;4.30;;;2.97;;
57441;SDS011;43284;47.042;15.498;2023-08-12T02:00:08;4.57;;;2.45;;
57441;SDS011;43284;47.042;15.498;2023-08-12T02:02:34;4.22;;;2.78;;
57441;SDS011;43284;47.042;15.498;2023-08-12T02:04:59;6.10;;;3.20;;
57441;SDS011;43284;47.042;15.498;2023-08-12T02:07:25;5.72;;;3.35;;
57441;SDS011;43284;47.042;15.498;2023-08-12T02:09:51;4.53;;;3.08;;
57441;SDS011;43284;47.042;15.498;2023-08-12T02:12:16;7.25;;;3.45;;
57441;SDS011;43284;47.042;15.498;2023-08-12T02:14:42;7.03;;;3.28;;
57441;SDS011;43284;47.042;15.498;2023-08-12T02:17:07;4.68;;;2.78;;
57441;SDS011;43284;47.042;15.498;2023-08-12T02:19:33;4.13;;;2.55;;
57441;SDS011;43284;47.042;15.498;2023-08-12T02:21:59;4.45;;;2.45;;
57441;SDS011;43284;47.042;15.498;2023-08-12T02:24:26;4.38;;;3.17;;
57441;SDS011;43284;47.042;15.498;2023-08-12T02:26:52;3.97;;;2.45;;
57441;SDS011;43284;47.042;15.498;2023-08-12T02:29:18;3.95;;;2.78;;
57441;SDS011;43284;47.042;15.498;2023-08-12T02:31:44;5.18;;;3.40;;
57441;SDS011;43284;47.042;15.498;2023-08-12T02:34:09;5.05;;;2.97;;
57441;SDS011;43284;47.042;15.498;2023-08-12T02:36:35;3.78;;;2.95;;
57441;SDS011;43284;47.042;15.498;2023-08-12T02:39:01;3.53;;;2.70;;
57441;SDS011;43284;47.042;15.498;2023-08-12T02:41:26;3.78;;;2.78;;
57441;SDS011;43284;47.042;15.498;2023-08-12T02:43:52;4.80;;;2.83;;
57441;SDS011;43284;47.042;15.498;2023-08-12T02:46:17;4.07;;;2.47;;
57441;SDS011;43284;47.042;15.498;2023-08-12T02:48:45;5.63;;;2.83;;
57441;SDS011;43284;47.042;15.498;2023-08-12T02:51:12;5.40;;;3.42;;
57441;SDS011;43284;47.042;15.498;2023-08-12T02:53:38;4.68;;;3.30;;
57441;SDS011;43284;47.042;15.498;2023-08-12T02:56:03;4.50;;;3.13;;
57441;SDS011;43284;47.042;15.498;2023-08-12T02:58:29;5.20;;;3.05;;
57441;SDS011;43284;47.042;15.498;2023-08-12T03:00:55;4.00;;;2.60;;
57441;SDS011;43284;47.042;15.498;2023-08-12T03:03:20;9.27;;;2.85;;
57441;SDS011;43284;47.042;15.498;2023-08-12T03:05:49;6.70;;;3.13;;
57441;SDS011;43284;47.042;15.498;2023-08-12T03:08:14;5.13;;;3.00;;
57441;SDS011;43284;47.042;15.498;2023-08-12T03:10:40;6.78;;;3.30;;
57441;SDS011;43284;47.042;15.498;2023-08-12T03:13:07;3.97;;;2.90;;
57441;SDS011;43284;47.042;15.498;2023-08-12T03:15:32;4.82;;;3.03;;
57441;SDS011;43284;47.042;15.498;2023-08-12T03:17:58;5.65;;;3.25;;
57441;SDS011;43284;47.042;15.498;2023-08-12T03:20:23;6.72;;;2.67;;
57441;SDS011;43284;47.042;15.498;2023-08-12T03:22:49;3.75;;;2.85;;
57441;SDS011;43284;47.042;15.498;2023-08-12T03:25:15;7.55;;;2.90;;
57441;SDS011;43284;47.042;15.498;2023-08-12T03:27:40;3.88;;;2.83;;
57441;SDS011;43284;47.042;15.498;2023-08-12T03:30:06;3.88;;;2.88;;
57441;SDS011;43284;47.042;15.498;2023-08-12T03:32:32;4.22;;;2.88;;
57441;SDS011;43284;47.042;15.498;2023-08-12T03:34:58;7.38;;;3.50;;
57441;SDS011;43284;47.042;15.498;2023-08-12T03:37:24;4.95;;;3.38;;
57441;SDS011;43284;47.042;15.498;2023-08-12T03:39:50;4.30;;;2.80;;
57441;SDS011;43284;47.042;15.498;2023-08-12T03:42:16;3.60;;;2.80;;
57441;SDS011;43284;47.042;15.498;2023-08-12T03:44:42;5.47;;;3.08;;
57441;SDS011;43284;47.042;15.498;2023-08-12T03:47:08;6.03;;;3.30;;
57441;SDS011;43284;47.042;15.498;2023-08-12T03:49:33;4.75;;;3.15;;
57441;SDS011;43284;47.042;15.498;2023-08-12T03:51:59;5.57;;;3.78;;
57441;SDS011;43284;47.042;15.498;2023-08-12T03:54:24;6.55;;;3.63;;
57441;SDS011;43284;47.042;15.498;2023-08-12T03:56:50;5.18;;;3.15;;
57441;SDS011;43284;47.042;15.498;2023-08-12T03:59:15;3.60;;;3.08;;
57441;SDS011;43284;47.042;15.498;2023-08-12T04:01:41;4.50;;;3.00;;
57441;SDS011;43284;47.042;15.498;2023-08-12T04:04:06;4.55;;;2.97;;
57441;SDS011;43284;47.042;15.498;2023-08-12T04:06:32;6.50;;;3.22;;
57441;SDS011;43284;47.042;15.498;2023-08-12T04:08:58;4.78;;;3.20;;
57441;SDS011;43284;47.042;15.498;2023-08-12T04:11:23;4.90;;;2.78;;
57441;SDS011;43284;47.042;15.498;2023-08-12T04:13:49;4.80;;;3.10;;
57441;SDS011;43284;47.042;15.498;2023-08-12T04:16:14;8.60;;;2.92;;
57441;SDS011;43284;47.042;15.498;2023-08-12T04:18:40;5.22;;;3.03;;
57441;SDS011;43284;47.042;15.498;2023-08-12T04:21:05;6.72;;;3.30;;
57441;SDS011;43284;47.042;15.498;2023-08-12T04:23:31;6.13;;;3.00;;
57441;SDS011;43284;47.042;15.498;2023-08-12T04:25:56;9.15;;;3.65;;
57441;SDS011;43284;47.042;15.498;2023-08-12T04:28:22;6.93;;;3.60;;
57441;SDS011;43284;47.042;15.498;2023-08-12T04:30:48;8.05;;;2.97;;
57441;SDS011;43284;47.042;15.498;2023-08-12T04:33:18;5.45;;;3.65;;
57441;SDS011;43284;47.042;15.498;2023-08-12T04:35:45;5.88;;;3.83;;
57441;SDS011;43284;47.042;15.498;2023-08-12T04:38:11;6.20;;;3.72;;
57441;SDS011;43284;47.042;15.498;2023-08-12T04:40:39;12.88;;;5.50;;
57441;SDS011;43284;47.042;15.498;2023-08-12T04:43:05;26.15;;;8.77;;
57441;SDS011;43284;47.042;15.498;2023-08-12T04:45:31;12.10;;;6.00;;
57441;SDS011;43284;47.042;15.498;2023-08-12T04:47:57;7.80;;;4.63;;
57441;SDS011;43284;47.042;15.498;2023-08-12T04:50:23;6.80;;;4.10;;
57441;SDS011;43284;47.042;15.498;2023-08-12T04:52:48;7.10;;;4.10;;
57441;SDS011;43284;47.042;15.498;2023-08-12T04:55:14;5.30;;;3.78;;
57441;SDS011;43284;47.042;15.498;2023-08-12T04:57:40;7.13;;;4.20;;
57441;SDS011;43284;47.042;15.498;2023-08-12T05:00:05;9.82;;;4.55;;
57441;SDS011;43284;47.042;15.498;2023-08-12T05:02:34;4.93;;;3.35;;
57441;SDS011;43284;47.042;15.498;2023-08-12T05:05:00;5.10;;;3.72;;
57441;SDS011;43284;47.042;15.498;2023-08-12T05:07:26;7.88;;;3.97;;
57441;SDS011;43284;47.042;15.498;2023-08-12T05:09:51;5.90;;;3.40;;
57441;SDS011;43284;47.042;15.498;2023-08-12T05:12:17;6.30;;;3.95;;
57441;SDS011;43284;47.042;15.498;2023-08-12T05:14:42;6.05;;;3.97;;
57441;SDS011;43284;47.042;15.498;2023-08-12T05:17:08;5.93;;;3.80;;
57441;SDS011;43284;47.042;15.498;2023-08-12T05:19:33;7.53;;;3.80;;
57441;SDS011;43284;47.042;15.498;2023-08-12T05:21:59;5.75;;;3.97;;
57441;SDS011;43284;47.042;15.498;2023-08-12T05:24:25;8.35;;;3.50;;
57441;SDS011;43284;47.042;15.498;2023-08-12T05:26:50;5.65;;;4.63;;
57441;SDS011;43284;47.042;15.498;2023-08-12T05:29:16;5.28;;;3.50;;
57441;SDS011;43284;47.042;15.498;2023-08-12T05:31:41;6.22;;;4.13;;
57441;SDS011;43284;47.042;15.498;2023-08-12T05:34:07;7.93;;;3.80;;
57441;SDS011;43284;47.042;15.498;2023-08-12T05:36:32;5.28;;;3.25;;
57441;SDS011;43284;47.042;15.498;2023-08-12T05:38:58;5.43;;;3.97;;
57441;SDS011;43284;47.042;15.498;2023-08-12T05:41:23;9.77;;;4.35;;
57441;SDS011;43284;47.042;15.498;2023-08-12T05:43:49;4.80;;;3.53;;
57441;SDS011;43284;47.042;15.498;2023-08-12T05:46:15;6.22;;;3.92;;
57441;SDS011;43284;47.042;15.498;2023-08-12T05:48:40;5.47;;;4.07;;
57441;SDS011;43284;47.042;15.498;2023-08-12T05:51:06;5.90;;;4.28;;
57441;SDS011;43284;47.042;15.498;2023-08-12T05:53:31;6.75;;;4.10;;
57441;SDS011;43284;47.042;15.498;2023-08-12T05:55:58;10.10;;;4.38;;
57441;SDS011;43284;47.042;15.498;2023-08-12T05:58:23;8.57;;;4.38;;
57441;SDS011;43284;47.042;15.498;2023-08-12T06:00:49;8.93;;;4.28;;
57441;SDS011;43284;47.042;15.498;2023-08-12T06:03:15;8.27;;;4.60;;
57441;SDS011;43284;47.042;15.498;2023-08-12T06:05:41;6.35;;;4.38;;
57441;SDS011;43284;47.042;15.498;2023-08-12T06:08:06;8.68;;;4.05;;
57441;SDS011;43284;47.042;15.498;2023-08-12T06:10:32;5.78;;;4.20;;
57441;SDS011;43284;47.042;15.498;2023-08-12T06:12:58;8.07;;;4.90;;
57441;SDS011;43284;47.042;15.498;2023-08-12T06:15:24;8.00;;;4.40;;
57441;SDS011;43284;47.042;15.498;2023-08-12T06:17:49;7.97;;;4.38;;
57441;SDS011;43284;47.042;15.498;2023-08-12T06:20:15;7.78;;;4.40;;
57441;SDS011;43284;47.042;15.498;2023-08-12T06:22:40;7.30;;;4.53;;
57441;SDS011;43284;47.042;15.498;2023-08-12T06:25:06;6.80;;;3.85;;
57441;SDS011;43284;47.042;15.498;2023-08-12T06:27:32;8.20;;;3.85;;
57441;SDS011;43284;47.042;15.498;2023-08-12T06:29:57;5.75;;;3.65;;
57441;SDS011;43284;47.042;15.498;2023-08-12T06:32:23;6.47;;;3.65;;
57441;SDS011;43284;47.042;15.498;2023-08-12T06:34:48;6.05;;;3.60;;
57441;SDS011;43284;47.042;15.498;2023-08-12T06:37:14;10.23;;;3.83;;
57441;SDS011;43284;47.042;15.498;2023-08-12T06:39:39;6.38;;;3.33;;
57441;SDS011;43284;47.042;15.498;2023-08-12T06:42:05;5.78;;;3.28;;
57441;SDS011;43284;47.042;15.498;2023-08-12T06:44:30;5.80;;;3.25;;
57441;SDS011;43284;47.042;15.498;2023-08-12T06:46:56;8.57;;;3.70;;
57441;SDS011;43284;47.042;15.498;2023-08-12T06:49:21;8.35;;;3.35;;
57441;SDS011;43284;47.042;15.498;2023-08-12T06:51:47;6.68;;;3.55;;
57441;SDS011;43284;47.042;15.498;2023-08-12T06:54:12;6.45;;;3.45;;
57441;SDS011;43284;47.042;15.498;2023-08-12T06:56:38;7.88;;;3.97;;
57441;SDS011;43284;47.042;15.498;2023-08-12T06:59:03;7.05;;;3.72;;
57441;SDS011;43284;47.042;15.498;2023-08-12T07:01:29;8.98;;;3.60;;
57441;SDS011;43284;47.042;15.498;2023-08-12T07:03:55;5.60;;;3.53;;
57441;SDS011;43284;47.042;15.498;2023-08-12T07:06:20;5.75;;;3.33;;
57441;SDS011;43284;47.042;15.498;2023-08-12T07:08:46;6.13;;;3.50;;
57441;SDS011;43284;47.042;15.498;2023-08-12T07:11:12;7.35;;;3.30;;
57441;SDS011;43284;47.042;15.498;2023-08-12T07:13:38;8.07;;;3.30;;
57441;SDS011;43284;47.042;15.498;2023-08-12T07:16:03;6.65;;;3.67;;
57441;SDS011;43284;47.042;15.498;2023-08-12T07:18:29;5.43;;;3.03;;
57441;SDS011;43284;47.042;15.498;2023-08-12T07:20:54;8.75;;;3.70;;
57441;SDS011;43284;47.042;15.498;2023-08-12T07:23:20;3.38;;;2.55;;
57441;SDS011;43284;47.042;15.498;2023-08-12T07:25:48;6.65;;;3.20;;
57441;SDS011;43284;47.042;15.498;2023-08-12T07:28:14;7.75;;;3.65;;
57441;SDS011;43284;47.042;15.498;2023-08-12T07:30:39;4.47;;;3.85;;
57441;SDS011;43284;47.042;15.498;2023-08-12T07:33:05;5.30;;;3.53;;
57441;SDS011;43284;47.042;15.498;2023-08-12T07:35:30;6.20;;;3.78;;
57441;SDS011;43284;47.042;15.498;2023-08-12T07:37:56;5.95;;;3.10;;
57441;SDS011;43284;47.042;15.498;2023-08-12T07:40:21;5.65;;;3.60;;
57441;SDS011;43284;47.042;15.498;2023-08-12T07:42:47;6.97;;;2.88;;
57441;SDS011;43284;47.042;15.498;2023-08-12T07:45:12;5.90;;;2.90;;
57441;SDS011;43284;47.042;15.498;2023-08-12T07:47:38;4.85;;;3.28;;
57441;SDS011;43284;47.042;15.498;2023-08-12T07:50:04;4.68;;;2.95;;
57441;SDS011;43284;47.042;15.498;2023-08-12T07:52:30;8.00;;;3.53;;
57441;SDS011;43284;47.042;15.498;2023-08-12T07:54:56;10.25;;;3.30;;
57441;SDS011;43284;47.042;15.498;2023-08-12T07:57:21;6.13;;;3.30;;
57441;SDS011;43284;47.042;15.498;2023-08-12T07:59:51;7.97;;;3.88;;
57441;SDS011;43284;47.042;15.498;2023-08-12T08:02:17;5.95;;;2.95;;
57441;SDS011;43284;47.042;15.498;2023-08-12T08:04:43;5.35;;;3.13;;
57441;SDS011;43284;47.042;15.498;2023-08-12T08:07:08;7.13;;;2.85;;
57441;SDS011;43284;47.042;15.498;2023-08-12T08:09:34;5.38;;;3.00;;
57441;SDS011;43284;47.042;15.498;2023-08-12T08:12:00;5.22;;;2.88;;
57441;SDS011;43284;47.042;15.498;2023-08-12T08:14:26;7.32;;;3.47;;
57441;SDS011;43284;47.042;15.498;2023-08-12T08:16:52;3.92;;;2.30;;
57441;SDS011;43284;47.042;15.498;2023-08-12T08:19:18;6.20;;;2.60;;
57441;SDS011;43284;47.042;15.498;2023-08-12T08:21:44;4.18;;;2.53;;
57441;SDS011;43284;47.042;15.498;2023-08-12T08:24:10;3.92;;;2.20;;
57441;SDS011;43284;47.042;15.498;2023-08-12T08:26:38;3.45;;;2.15;;
57441;SDS011;43284;47.042;15.498;2023-08-12T08:29:04;3.88;;;2.30;;
57441;SDS011;43284;47.042;15.498;2023-08-12T08:31:29;3.40;;;2.17;;
57441;SDS011;43284;47.042;15.498;2023-08-12T08:33:55;5.70;;;2.90;;
57441;SDS011;43284;47.042;15.498;2023-08-12T08:36:20;5.57;;;2.53;;
57441;SDS011;43284;47.042;15.498;2023-08-12T08:38:46;3.80;;;2.70;;
57441;SDS011;43284;47.042;15.498;2023-08-12T08:41:11;2.63;;;2.15;;
57441;SDS011;43284;47.042;15.498;2023-08-12T08:43:38;3.33;;;2.40;;
57441;SDS011;43284;47.042;15.498;2023-08-12T08:46:06;3.42;;;2.67;;
57441;SDS011;43284;47.042;15.498;2023-08-12T08:48:33;4.03;;;2.45;;
57441;SDS011;43284;47.042;15.498;2023-08-12T08:50:59;3.08;;;2.60;;
57441;SDS011;43284;47.042;15.498;2023-08-12T08:53:26;7.70;;;3.15;;
57441;SDS011;43284;47.042;15.498;2023-08-12T08:55:51;7.38;;;2.60;;
57441;SDS011;43284;47.042;15.498;2023-08-12T08:58:18;6.80;;;3.03;;
57441;SDS011;43284;47.042;15.498;2023-08-12T09:00:44;4.88;;;3.05;;
57441;SDS011;43284;47.042;15.498;2023-08-12T09:03:10;5.25;;;2.92;;
57441;SDS011;43284;47.042;15.498;2023-08-12T09:05:37;4.10;;;2.75;;
57441;SDS011;43284;47.042;15.498;2023-08-12T09:08:05;2.75;;;2.30;;
57441;SDS011;43284;47.042;15.498;2023-08-12T09:10:35;4.00;;;2.50;;
57441;SDS011;43284;47.042;15.498;2023-08-12T09:13:06;3.67;;;2.60;;
57441;SDS011;43284;47.042;15.498;2023-08-12T09:15:33;5.53;;;2.80;;
57441;SDS011;43284;47.042;15.498;2023-08-12T09:17:59;5.40;;;2.85;;
57441;SDS011;43284;47.042;15.498;2023-08-12T09:20:24;6.45;;;3.47;;
57441;SDS011;43284;47.042;15.498;2023-08-12T09:22:57;6.10;;;3.13;;
57441;SDS011;43284;47.042;15.498;2023-08-12T09:25:23;4.85;;;2.80;;
57441;SDS011;43284;47.042;15.498;2023-08-12T09:27:49;5.13;;;2.53;;
57441;SDS011;43284;47.042;15.498;2023-08-12T09:30:15;5.47;;;2.67;;
57441;SDS011;43284;47.042;15.498;2023-08-12T09:32:40;4.57;;;2.22;;
57441;SDS011;43284;47.042;15.498;2023-08-12T09:35:09;5.07;;;3.10;;
57441;SDS011;43284;47.042;15.498;2023-08-12T09:37:41;6.20;;;2.55;;
57441;SDS011;43284;47.042;15.498;2023-08-12T09:40:07;10.68;;;4.28;;
57441;SDS011;43284;47.042;15.498;2023-08-12T09:42:33;3.85;;;2.42;;
57441;SDS011;43284;47.042;15.498;2023-08-12T09:44:59;4.68;;;2.75;;
57441;SDS011;43284;47.042;15.498;2023-08-12T09:47:25;2.83;;;2.13;;
57441;SDS011;43284;47.042;15.498;2023-08-12T09:49:52;5.10;;;2.78;;
57441;SDS011;43284;47.042;15.498;2023-08-12T09:52:17;4.13;;;3.05;;
57441;SDS011;43284;47.042;15.498;2023-08-12T09:54:43;6.47;;;2.95;;
57441;SDS011;43284;47.042;15.498;2023-08-12T09:57:09;8.43;;;3.15;;
57441;SDS011;43284;47.042;15.498;2023-08-12T09:59:38;4.38;;;2.85;;
57441;SDS011;43284;47.042;15.498;2023-08-12T10:02:06;4.53;;;2.60;;
57441;SDS011;43284;47.042;15.498;2023-08-12T10:04:41;7.18;;;2.80;;
57441;SDS011;43284;47.042;15.498;2023-08-12T10:07:09;9.23;;;3.63;;
57441;SDS011;43284;47.042;15.498;2023-08-12T10:09:36;4.22;;;2.53;;
57441;SDS011;43284;47.042;15.498;2023-08-12T10:12:02;4.38;;;2.83;;
57441;SDS011;43284;47.042;15.498;2023-08-12T10:14:29;4.03;;;2.67;;
57441;SDS011;43284;47.042;15.498;2023-08-12T10:16:54;3.75;;;2.92;;
57441;SDS011;43284;47.042;15.498;2023-08-12T10:19:20;5.70;;;2.80;;
57441;SDS011;43284;47.042;15.498;2023-08-12T10:21:50;3.45;;;2.50;;
57441;SDS011;43284;47.042;15.498;2023-08-12T10:24:21;4.10;;;2.33;;
57441;SDS011;43284;47.042;15.498;2023-08-12T10:26:49;3.00;;;2.33;;
57441;SDS011;43284;47.042;15.498;2023-08-12T10:29:16;3.20;;;2.70;;
57441;SDS011;43284;47.042;15.498;2023-08-12T10:31:42;3.40;;;2.55;;
57441;SDS011;43284;47.042;15.498;2023-08-12T10:34:17;3.20;;;2.28;;
57441;SDS011;43284;47.042;15.498;2023-08-12T10:36:47;5.65;;;2.67;;
57441;SDS011;43284;47.042;15.498;2023-08-12T10:39:13;3.15;;;2.13;;
57441;SDS011;43284;47.042;15.498;2023-08-12T10:41:39;3.88;;;2.40;;
57441;SDS011;43284;47.042;15.498;2023-08-12T10:44:16;3.88;;;2.58;;
57441;SDS011;43284;47.042;15.498;2023-08-12T10:46:41;3.03;;;2.03;;
57441;SDS011;43284;47.042;15.498;2023-08-12T10:49:15;4.75;;;2.75;;
57441;SDS011;43284;47.042;15.498;2023-08-12T10:51:44;2.70;;;2.10;;
57441;SDS011;43284;47.042;15.498;2023-08-12T10:54:13;7.80;;;2.30;;
57441;SDS011;43284;47.042;15.498;2023-08-12T11:02:16;4.80;;;2.55;;
57441;SDS011;43284;47.042;15.498;2023-08-12T11:04:52;4.72;;;2.47;;
57441;SDS011;43284;47.042;15.498;2023-08-12T11:07:27;3.35;;;2.70;;
57441;SDS011;43284;47.042;15.498;2023-08-12T11:09:58;6.45;;;3.45;;
57441;SDS011;43284;47.042;15.498;2023-08-12T11:12:35;3.83;;;2.50;;
57441;SDS011;43284;47.042;15.498;2023-08-12T11:15:01;3.75;;;2.30;;
57441;SDS011;43284;47.042;15.498;2023-08-12T11:20:03;8.75;;;2.83;;
57441;SDS011;43284;47.042;15.498;2023-08-12T11:22:32;4.00;;;3.20;;
57441;SDS011;43284;47.042;15.498;2023-08-12T11:25:01;3.58;;;1.73;;
57441;SDS011;43284;47.042;15.498;2023-08-12T11:27:28;2.85;;;2.10;;
57441;SDS011;43284;47.042;15.498;2023-08-12T11:29:53;3.10;;;2.33;;
57441;SDS011;43284;47.042;15.498;2023-08-12T11:32:19;4.55;;;3.00;;
57441;SDS011;43284;47.042;15.498;2023-08-12T11:34:44;4.68;;;2.20;;
57441;SDS011;43284;47.042;15.498;2023-08-12T11:37:10;2.70;;;2.08;;
57441;SDS011;43284;47.042;15.498;2023-08-12T11:39:36;4.13;;;2.42;;
57441;SDS011;43284;47.042;15.498;2023-08-12T11:42:02;3.17;;;2.08;;
57441;SDS011;43284;47.042;15.498;2023-08-12T11:44:28;4.57;;;1.98;;
57441;SDS011;43284;47.042;15.498;2023-08-12T11:46:54;3.88;;;2.00;;
57441;SDS011;43284;47.042;15.498;2023-08-12T11:49:19;3.03;;;2.20;;
57441;SDS011;43284;47.042;15.498;2023-08-12T11:51:45;3.05;;;1.98;;
57441;SDS011;43284;47.042;15.498;2023-08-12T11:54:14;4.72;;;2.25;;
57441;SDS011;43284;47.042;15.498;2023-08-12T11:56:40;2.10;;;1.70;;
57441;SDS011;43284;47.042;15.498;2023-08-12T11:59:06;5.05;;;2.10;;
57441;SDS011;43284;47.042;15.498;2023-08-12T12:01:31;2.33;;;1.90;;
57441;SDS011;43284;47.042;15.498;2023-08-12T12:03:59;2.75;;;2.10;;
57441;SDS011;43284;47.042;15.498;2023-08-12T12:06:38;5.32;;;1.80;;
57441;SDS011;43284;47.042;15.498;2023-08-12T12:09:04;2.75;;;1.88;;
57441;SDS011;43284;47.042;15.498;2023-08-12T12:11:32;3.30;;;1.90;;
57441;SDS011;43284;47.042;15.498;2023-08-12T12:14:03;2.50;;;2.10;;
57441;SDS011;43284;47.042;15.498;2023-08-12T12:16:37;3.35;;;2.08;;
57441;SDS011;43284;47.042;15.498;2023-08-12T12:19:18;8.98;;;1.92;;
57441;SDS011;43284;47.042;15.498;2023-08-12T12:21:51;5.07;;;2.45;;
57441;SDS011;43284;47.042;15.498;2023-08-12T12:24:18;2.65;;;2.00;;
57441;SDS011;43284;47.042;15.498;2023-08-12T12:26:46;3.50;;;2.00;;
57441;SDS011;43284;47.042;15.498;2023-08-12T12:29:12;2.20;;;1.75;;
57441;SDS011;43284;47.042;15.498;2023-08-12T12:31:39;6.07;;;1.88;;
57441;SDS011;43284;47.042;15.498;2023-08-12T12:34:05;3.33;;;2.00;;
57441;SDS011;43284;47.042;15.498;2023-08-12T12:36:35;2.45;;;1.98;;
57441;SDS011;43284;47.042;15.498;2023-08-12T12:39:02;3.03;;;2.17;;
57441;SDS011;43284;47.042;15.498;2023-08-12T12:41:29;4.15;;;2.08;;
57441;SDS011;43284;47.042;15.498;2023-08-12T12:43:54;2.78;;;2.17;;
57441;SDS011;43284;47.042;15.498;2023-08-12T12:46:20;2.75;;;1.90;;
57441;SDS011;43284;47.042;15.498;2023-08-12T12:48:46;5.88;;;2.83;;
57441;SDS011;43284;47.042;15.498;2023-08-12T12:51:12;5.68;;;2.38;;
57441;SDS011;43284;47.042;15.498;2023-08-12T12:53:38;3.85;;;2.13;;
57441;SDS011;43284;47.042;15.498;2023-08-12T12:56:03;3.28;;;2.42;;
57441;SDS011;43284;47.042;15.498;2023-08-12T12:58:30;3.20;;;2.10;;
57441;SDS011;43284;47.042;15.498;2023-08-12T13:00:58;3.47;;;2.17;;
57441;SDS011;43284;47.042;15.498;2023-08-12T13:03:24;2.80;;;2.10;;
57441;SDS011;43284;47.042;15.498;2023-08-12T13:05:49;3.08;;;2.38;;
57441;SDS011;43284;47.042;15.498;2023-08-12T13:08:15;3.70;;;2.30;;
57441;SDS011;43284;47.042;15.498;2023-08-12T13:10:41;3.08;;;2.35;;
57441;SDS011;43284;47.042;15.498;2023-08-12T13:13:06;3.85;;;1.92;;
57441;SDS011;43284;47.042;15.498;2023-08-12T13:15:31;2.70;;;1.98;;
57441;SDS011;43284;47.042;15.498;2023-08-12T13:17:57;2.78;;;2.00;;
57441;SDS011;43284;47.042;15.498;2023-08-12T13:20:22;3.50;;;1.90;;
57441;SDS011;43284;47.042;15.498;2023-08-12T13:22:48;3.80;;;2.10;;
57441;SDS011;43284;47.042;15.498;2023-08-12T13:25:13;4.13;;;2.03;;
57441;SDS011;43284;47.042;15.498;2023-08-12T13:27:39;3.05;;;1.90;;
57441;SDS011;43284;47.042;15.498;2023-08-12T13:30:05;2.30;;;1.80;;
57441;SDS011;43284;47.042;15.498;2023-08-12T13:32:31;2.30;;;1.90;;
57441;SDS011;43284;47.042;15.498;2023-08-12T13:34:56;3.03;;;2.45;;
57441;SDS011;43284;47.042;15.498;2023-08-12T13:37:22;3.00;;;2.00;;
57441;SDS011;43284;47.042;15.498;2023-08-12T13:39:48;4.25;;;1.95;;
57441;SDS011;43284;47.042;15.498;2023-08-12T13:42:13;3.05;;;2.17;;
57441;SDS011;43284;47.042;15.498;2023-08-12T13:44:38;4.93;;;2.00;;
57441;SDS011;43284;47.042;15.498;2023-08-12T13:47:04;2.67;;;1.73;;
57441;SDS011;43284;47.042;15.498;2023-08-12T13:49:29;2.35;;;1.80;;
57441;SDS011;43284;47.042;15.498;2023-08-12T13:51:55;2.92;;;1.90;;
57441;SDS011;43284;47.042;15.498;2023-08-12T13:54:20;1.85;;;1.40;;
57441;SDS011;43284;47.042;15.498;2023-08-12T13:56:46;2.58;;;1.88;;
57441;SDS011;43284;47.042;15.498;2023-08-12T13:59:11;3.67;;;1.90;;
57441;SDS011;43284;47.042;15.498;2023-08-12T14:01:37;2.05;;;1.52;;
57441;SDS011;43284;47.042;15.498;2023-08-12T14:04:03;2.97;;;1.80;;
57441;SDS011;43284;47.042;15.498;2023-08-12T14:06:29;2.53;;;2.08;;
57441;SDS011;43284;47.042;15.498;2023-08-12T14:08:54;3.72;;;2.10;;
57441;SDS011;43284;47.042;15.498;2023-08-12T14:11:20;2.85;;;2.00;;
57441;SDS011;43284;47.042;15.498;2023-08-12T14:13:45;2.60;;;2.00;;
57441;SDS011;43284;47.042;15.498;2023-08-12T14:16:11;3.28;;;1.92;;
57441;SDS011;43284;47.042;15.498;2023-08-12T14:18:37;3.03;;;2.17;;
57441;SDS011;43284;47.042;15.498;2023-08-12T14:21:03;2.10;;;1.70;;
57441;SDS011;43284;47.042;15.498;2023-08-12T14:23:29;3.08;;;2.03;;
57441;SDS011;43284;47.042;15.498;2023-08-12T14:25:54;2.97;;;2.00;;
57441;SDS011;43284;47.042;15.498;2023-08-12T14:28:20;2.83;;;1.83;;
57441;SDS011;43284;47.042;15.498;2023-08-12T14:30:45;3.22;;;1.88;;
57441;SDS011;43284;47.042;15.498;2023-08-12T14:33:11;1.92;;;1.70;;
57441;SDS011;43284;47.042;15.498;2023-08-12T14:35:36;3.53;;;2.20;;
57441;SDS011;43284;47.042;15.498;2023-08-12T14:38:02;3.50;;;1.80;;
57441;SDS011;43284;47.042;15.498;2023-08-12T14:40:28;1.83;;;1.70;;